Time;durP1;ratioP1;P1;durP2;ratioP2;P2;SDS_P1;SDS_P2;PMS_P1;PMS_P2;Temp;Humidity;BMP_temperature;BMP_pressure;BME280_temperature;BME280_humidity;BME280_pressure;Samples;Min_cycle;Max_cycle;Signal;HPM_P1;HPM_P2
2021/09/16 03:19:06;;;;;;;;;;;;;;;7.56;95.35;99459.22;5031524;28;19935;-83
2021/09/16 03:21:31;;;;;;;;;;;;;;;7.55;95.60;99460.13;5051140;28;20293;-84
2021/09/16 03:23:57;;;;;;;;;;;;;;;7.50;96.25;99458.56;5050769;28;19942;-83
2021/09/16 03:26:22;;;;;;;;;;;;;;;7.55;96.05;99456.63;5050142;28;20050;-84
2021/09/16 03:28:47;;;;;;;;;;;;;;;7.60;97.77;99462.59;5046506;28;19921;-83
2021/09/16 03:31:13;;;;;;;;;;;;;;;7.66;99.62;99457.09;5058185;28;20371;-88
2021/09/16 03:33:38;;;;;;;;;;;;;;;7.85;100.00;99466.97;5048812;28;19995;-86
2021/09/16 03:36:04;;;;;;;;;;;;;;;7.95;100.00;99463.94;5050133;28;19917;-83
2021/09/16 03:38:29;;;;;;;;;;;;;;;8.06;100.00;99473.22;5053781;28;19920;-84
2021/09/16 03:40:54;;;;;;;;;;;;;;;8.25;100.00;99473.38;5062437;28;20335;-83
2021/09/16 03:43:20;;;;;;;;;;;;;;;8.19;100.00;99480.63;5053732;28;19987;-87
2021/09/16 03:45:45;;;;;;;;;;;;;;;8.21;100.00;99471.81;5054969;28;19920;-82
2021/09/16 03:48:10;;;;;;;;;;;;;;;8.37;100.00;99468.50;5052204;28;19924;-82
2021/09/16 03:50:36;;;;;;;;;;;;;;;8.23;100.00;99478.72;5054833;28;19920;-85
2021/09/16 03:53:02;;;;;;;;;;;;;;;8.21;100.00;99479.72;5052483;28;19963;-83
2021/09/16 03:55:27;;;;;;;;;;;;;;;8.16;100.00;99475.47;5045993;28;20010;-82
2021/09/16 03:57:53;;;;;;;;;;;;;;;8.08;100.00;99482.81;5046242;28;19927;-84
2021/09/16 04:00:18;;;;;;;;;;;;;;;8.04;100.00;99475.94;5051643;28;20334;-88
2021/09/16 04:02:43;;;;;;;;;;;;;;;8.00;100.00;99490.16;5052030;28;19920;-83
2021/09/16 04:05:09;;;;;;;;;;;;;;;8.02;100.00;99482.19;5051420;28;20436;-81
2021/09/16 04:07:34;;;;;;;;;;;;;;;8.64;100.00;99473.66;5054290;28;20011;-83
2021/09/16 04:09:59;;;;;;;;;;;;;;;8.59;100.00;99470.34;5053113;28;20359;-83
2021/09/16 04:12:24;;;;;;;;;;;;;;;8.64;100.00;99471.00;5045900;28;20267;-83
2021/09/16 04:14:50;;;;;;;;;;;;;;;8.51;100.00;99473.28;5053007;28;20015;-83
2021/09/16 04:17:15;;;;;;;;;;;;;;;8.44;100.00;99476.22;5048306;28;19920;-83
2021/09/16 04:19:40;;;;;;;;;;;;;;;8.24;100.00;99488.38;5054467;28;20363;-83
2021/09/16 04:22:05;;;;;;;;;;;;;;;8.25;100.00;99494.50;5052671;28;19916;-83
2021/09/16 04:24:31;;;;;;;;;;;;;;;8.23;100.00;99497.19;5052308;28;19920;-87
2021/09/16 04:26:56;;;;;;;;;;;;;;;8.14;100.00;99514.25;5051658;28;20004;-84
2021/09/16 04:29:21;;;;;;;;;;;;;;;8.03;100.00;99505.88;5052740;28;20303;-85
2021/09/16 04:31:46;;;;;;;;;;;;;;;8.04;100.00;99512.88;5051399;28;19917;-84
2021/09/16 04:34:12;;;;;;;;;;;;;;;8.00;100.00;99513.91;5052550;28;20375;-89
2021/09/16 04:36:41;;;;;;;;;;;;;;;8.13;100.00;99516.94;5052419;28;19961;-86
2021/09/16 04:39:06;;;;;;;;;;;;;;;8.15;100.00;99521.28;5052418;28;19921;-85
2021/09/16 04:41:32;;;;;;;;;;;;;;;8.00;100.00;99519.19;5053880;28;19978;-86
2021/09/16 04:43:58;;;;;;;;;;;;;;;7.98;100.00;99528.94;5052512;28;19921;-88
2021/09/16 04:46:23;;;;;;;;;;;;;;;7.88;100.00;99520.50;5052455;28;19917;-84
2021/09/16 04:48:48;;;;;;;;;;;;;;;7.90;100.00;99518.66;5058045;28;19966;-84
2021/09/16 04:51:13;;;;;;;;;;;;;;;7.94;100.00;99522.88;5053672;28;20295;-84
2021/09/16 04:53:39;;;;;;;;;;;;;;;7.91;100.00;99522.16;5052091;28;19917;-83
2021/09/16 04:56:04;;;;;;;;;;;;;;;7.91;100.00;99532.69;5048657;28;19971;-84
2021/09/16 04:58:29;;;;;;;;;;;;;;;7.86;100.00;99529.38;5052292;28;19916;-87
2021/09/16 07:45:49;;;;;;;;;;;;;;;7.36;96.35;99668.16;5795954;22;19933;-84
2021/09/16 07:48:16;;;;;;;;;;;;;;;7.35;96.57;99676.94;5049398;28;19983;-86
2021/09/16 07:50:41;;;;;;;;;;;;;;;7.33;96.51;99681.41;5052826;28;19929;-84
2021/09/16 07:53:09;;;;;;;;;;;;;;;7.30;96.27;99676.25;5053490;28;20779;-85
2021/09/16 07:55:35;;;;;;;;;;;;;;;7.32;96.13;99677.03;5053402;28;19916;-85
2021/09/16 07:58:00;;;;;;;;;;;;;;;7.38;95.66;99684.75;5053262;28;20016;-83
2021/09/16 08:00:25;;;;;;;;;;;;;;;7.28;95.94;99683.34;5053422;28;20305;-84
2021/09/16 08:02:50;;;;;;;;;;;;;;;7.33;96.49;99684.06;5053168;28;19928;-85
2021/09/16 08:05:17;;;;;;;;;;;;;;;7.35;95.36;99691.91;5054404;28;19939;-85
2021/09/16 08:07:42;;;;;;;;;;;;;;;7.36;95.94;99694.50;5053188;28;20363;-86
2021/09/16 08:10:08;;;;;;;;;;;;;;;7.27;95.08;99695.66;5053151;28;19928;-87
2021/09/16 08:12:33;;;;;;;;;;;;;;;7.24;95.72;99700.16;5061280;28;19920;-85
2021/09/16 08:14:59;;;;;;;;;;;;;;;7.20;95.27;99694.13;5052897;28;19920;-86
2021/09/16 08:17:24;;;;;;;;;;;;;;;7.26;95.31;99698.34;5052993;28;19917;-86
2021/09/16 08:19:49;;;;;;;;;;;;;;;7.26;95.69;99700.97;5052990;28;19925;-86
2021/09/16 08:22:15;;;;;;;;;;;;;;;7.25;96.14;99708.00;5052108;28;20011;-85
2021/09/16 08:24:41;;;;;;;;;;;;;;;7.24;95.21;99702.78;5054265;28;19925;-85
2021/09/16 08:27:06;;;;;;;;;;;;;;;7.26;95.71;99695.72;5060732;28;19917;-85
2021/09/16 08:29:32;;;;;;;;;;;;;;;7.17;95.77;99691.56;5051400;28;20379;-85
2021/09/16 08:31:57;;;;;;;;;;;;;;;7.16;95.51;99703.00;5053955;28;20352;-86
2021/09/16 08:34:23;;;;;;;;;;;;;;;7.14;96.31;99699.56;5052941;28;19970;-85
2021/09/16 08:36:48;;;;;;;;;;;;;;;7.20;96.37;99709.06;5052175;28;19917;-85
2021/09/16 08:39:14;;;;;;;;;;;;;;;7.20;96.08;99709.94;5052545;28;19962;-85
2021/09/16 08:41:41;;;;;;;;;;;;;;;7.18;95.95;99710.88;5059426;28;20428;-85
2021/09/16 08:44:06;;;;;;;;;;;;;;;7.31;96.82;99717.50;5060212;28;19917;-85
2021/09/16 08:46:32;;;;;;;;;;;;;;;7.17;96.06;99709.16;5056976;28;20322;-85
2021/09/16 08:48:57;;;;;;;;;;;;;;;7.13;95.21;99703.09;5072343;28;19916;-87
2021/09/16 08:51:22;;;;;;;;;;;;;;;7.12;95.97;99709.31;5072339;28;19920;-85
2021/09/16 08:53:51;;;;;;;;;;;;;;;7.16;95.90;99712.69;5072279;28;19923;-88
2021/09/16 08:56:17;;;;;;;;;;;;;;;7.14;96.04;99714.53;5071699;28;19917;-87
2021/09/16 08:58:44;;;;;;;;;;;;;;;7.10;95.51;99708.50;5072180;28;19946;-86
2021/09/16 09:01:09;;;;;;;;;;;;;;;7.11;95.86;99706.72;5079099;28;19917;-85
2021/09/16 09:03:35;;;;;;;;;;;;;;;7.21;95.33;99713.41;5072114;28;19923;-85
2021/09/16 09:06:00;;;;;;;;;;;;;;;7.12;95.27;99706.66;5071944;28;20383;-87
2021/09/16 09:08:26;;;;;;;;;;;;;;;7.21;96.26;99713.41;5073304;28;19985;-85
2021/09/16 09:10:58;;;;;;;;;;;;;;;7.12;95.31;99711.09;5078776;28;19924;-85
2021/09/16 09:13:29;;;;;;;;;;;;;;;7.16;96.15;99715.34;5070665;28;19942;-85
2021/09/16 09:16:01;;;;;;;;;;;;;;;7.12;96.67;99717.19;5070468;28;19920;-86
2021/09/16 09:18:39;;;;;;;;;;;;;;;7.04;95.37;99713.94;5072662;28;19958;-88
2021/09/16 09:21:06;;;;;;;;;;;;;;;7.12;94.98;99711.09;5071740;28;19920;-84
2021/09/16 09:23:32;;;;;;;;;;;;;;;7.09;95.20;99710.25;5071551;28;19924;-88
2021/09/16 09:25:59;;;;;;;;;;;;;;;7.19;95.50;99707.34;5073121;28;19924;-85
2021/09/16 09:28:26;;;;;;;;;;;;;;;7.16;94.66;99710.91;5073113;28;19927;-84
2021/09/16 09:30:51;;;;;;;;;;;;;;;7.21;94.42;99709.03;5078587;28;19927;-85
2021/09/16 09:33:16;;;;;;;;;;;;;;;7.22;94.76;99704.59;5071480;28;19999;-85
2021/09/16 09:35:42;;;;;;;;;;;;;;;7.21;94.55;99702.88;5070921;28;19917;-84
2021/09/16 09:38:11;;;;;;;;;;;;;;;7.24;95.16;99705.41;5071375;28;20423;-85
2021/09/16 09:40:38;;;;;;;;;;;;;;;7.22;95.03;99700.19;5079111;28;20007;-85
2021/09/16 09:43:22;;;;;;;;;;;;;;;7.19;95.04;99704.69;5077903;28;19917;-86
2021/09/16 09:46:00;;;;;;;;;;;;;;;7.14;94.98;99707.47;5070007;28;20362;-84
2021/09/16 09:48:25;;;;;;;;;;;;;;;7.20;94.76;99709.94;5072645;28;19920;-85
2021/09/16 09:50:52;;;;;;;;;;;;;;;7.34;95.57;99711.25;5072119;28;19917;-85
2021/09/16 09:53:17;;;;;;;;;;;;;;;7.17;94.87;99715.28;5071168;28;19967;-86
2021/09/16 09:55:42;;;;;;;;;;;;;;;7.24;94.66;99722.13;5071853;28;20347;-86
2021/09/16 09:58:08;;;;;;;;;;;;;;;7.20;95.00;99725.75;5071117;28;19923;-84
2021/09/16 10:00:33;;;;;;;;;;;;;;;7.28;94.40;99722.88;5069859;28;19916;-85
2021/09/16 10:03:00;;;;;;;;;;;;;;;7.23;94.68;99728.28;5066479;28;19916;-85
2021/09/16 10:05:29;;;;;;;;;;;;;;;7.23;94.22;99719.53;5069223;28;19921;-85
2021/09/16 10:07:55;;;;;;;;;;;;;;;7.18;94.22;99724.94;5071024;28;19916;-85
2021/09/16 10:10:21;;;;;;;;;;;;;;;7.19;94.40;99733.69;5079193;28;19921;-87
2021/09/16 10:12:47;;;;;;;;;;;;;;;7.21;93.99;99731.84;5077875;28;19969;-84
2021/09/16 10:15:14;;;;;;;;;;;;;;;7.20;93.67;99727.53;5069409;28;19962;-86
2021/09/16 10:17:40;;;;;;;;;;;;;;;7.13;94.14;99720.69;5072116;28;19927;-84
2021/09/16 10:20:07;;;;;;;;;;;;;;;7.18;94.14;99724.03;5070583;28;19924;-86
2021/09/16 10:22:33;;;;;;;;;;;;;;;7.09;94.33;99725.19;5070671;28;20069;-85
2021/09/16 10:24:58;;;;;;;;;;;;;;;7.12;93.96;99718.97;5070814;28;20431;-89
2021/09/16 10:27:29;;;;;;;;;;;;;;;7.21;94.09;99718.69;5078800;28;19916;-85
2021/09/16 10:29:54;;;;;;;;;;;;;;;7.15;94.12;99713.59;5070454;28;19948;-87
2021/09/16 10:32:19;;;;;;;;;;;;;;;7.17;93.91;99711.81;5069926;28;20022;-88
2021/09/16 10:34:46;;;;;;;;;;;;;;;7.19;94.32;99710.81;5071783;28;20030;-87
2021/09/16 10:37:12;;;;;;;;;;;;;;;7.08;93.95;99700.63;5070545;28;19920;-85
2021/09/16 10:39:38;;;;;;;;;;;;;;;7.15;93.65;99698.66;5070139;28;20448;-85
2021/09/16 10:42:04;;;;;;;;;;;;;;;7.20;94.41;99701.16;5070269;28;20279;-84
2021/09/16 10:44:30;;;;;;;;;;;;;;;7.15;94.03;99703.06;5070635;28;19920;-86
2021/09/16 10:47:00;;;;;;;;;;;;;;;7.19;93.91;99700.28;5072265;28;19924;-85
2021/09/16 10:49:28;;;;;;;;;;;;;;;7.14;93.84;99703.97;5075798;28;19959;-85
2021/09/16 10:51:54;;;;;;;;;;;;;;;7.13;94.12;99702.25;5076302;28;19970;-89
2021/09/16 10:54:22;;;;;;;;;;;;;;;7.11;94.43;99707.56;5074013;28;19917;-89
2021/09/16 10:56:58;;;;;;;;;;;;;;;7.13;94.04;99704.88;5074537;28;19917;-89
2021/09/16 10:59:25;;;;;;;;;;;;;;;7.13;93.96;99697.81;5082261;28;19924;-89
2021/09/16 11:01:50;;;;;;;;;;;;;;;7.13;94.40;99707.50;5072961;28;19943;-85
2021/09/16 11:04:16;;;;;;;;;;;;;;;7.15;94.01;99706.56;5075569;28;20359;-87
2021/09/16 11:06:41;;;;;;;;;;;;;;;7.26;95.27;99706.25;5074399;28;20018;-85
2021/09/16 11:09:07;;;;;;;;;;;;;;;7.16;94.01;99702.16;5075647;28;20022;-85
2021/09/16 11:11:49;;;;;;;;;;;;;;;7.16;94.35;99704.78;5075794;28;19920;-84
2021/09/16 11:14:33;;;;;;;;;;;;;;;7.11;94.39;99704.06;5074606;28;19963;-87
2021/09/16 11:16:59;;;;;;;;;;;;;;;7.22;93.63;99702.81;5074369;28;20401;-88
2021/09/16 11:19:24;;;;;;;;;;;;;;;7.24;94.10;99701.03;5075282;28;19916;-85
2021/09/16 11:22:00;;;;;;;;;;;;;;;7.11;93.82;99696.16;5075410;28;19928;-85
2021/09/16 11:24:36;;;;;;;;;;;;;;;7.13;94.42;99694.34;5074707;28;19917;-85
2021/09/16 11:27:02;;;;;;;;;;;;;;;7.15;94.52;99700.41;5075330;28;19923;-88
2021/09/16 11:29:37;;;;;;;;;;;;;;;7.12;94.78;99696.13;5075089;28;20035;-85
2021/09/16 11:32:03;;;;;;;;;;;;;;;7.13;94.39;99696.97;5073709;28;19920;-89
2021/09/16 11:34:28;;;;;;;;;;;;;;;7.23;94.41;99701.94;5075118;28;19920;-85
2021/09/16 11:37:06;;;;;;;;;;;;;;;7.09;93.75;99698.84;5075304;28;19971;-85
2021/09/16 11:39:31;;;;;;;;;;;;;;;7.10;94.22;99708.50;5074962;28;19916;-88
2021/09/16 11:42:07;;;;;;;;;;;;;;;7.11;94.82;99711.97;5074891;28;20334;-85
2021/09/16 11:44:32;;;;;;;;;;;;;;;7.14;94.06;99706.63;5074530;28;19916;-88
2021/09/16 11:46:57;;;;;;;;;;;;;;;7.12;94.08;99708.44;5074071;28;19924;-85
2021/09/16 11:49:23;;;;;;;;;;;;;;;7.13;93.88;99707.50;5074909;28;19922;-89
2021/09/16 11:51:52;;;;;;;;;;;;;;;7.22;93.49;99712.50;5074825;28;20281;-85
2021/09/16 11:54:17;;;;;;;;;;;;;;;7.16;93.76;99708.28;5074195;28;19924;-89
2021/09/16 11:56:43;;;;;;;;;;;;;;;7.07;93.63;99712.06;5074621;28;19917;-89
2021/09/16 11:59:08;;;;;;;;;;;;;;;7.11;94.34;99706.72;5073260;28;19943;-85
2021/09/16 12:01:34;;;;;;;;;;;;;;;7.14;93.49;99703.97;5071550;28;19923;-85
2021/09/16 12:04:01;;;;;;;;;;;;;;;7.27;96.46;99707.97;5074519;28;19917;-85
2021/09/16 12:06:34;;;;;;;;;;;;;;;7.26;94.76;99706.25;5074310;28;20326;-85
2021/09/16 12:09:00;;;;;;;;;;;;;;;7.14;93.74;99710.09;5073130;28;20424;-86
2021/09/16 12:11:26;;;;;;;;;;;;;;;7.20;94.33;99706.44;5073028;28;20371;-87
2021/09/16 12:13:53;;;;;;;;;;;;;;;7.11;93.55;99709.34;5074374;28;19916;-88
2021/09/16 12:16:18;;;;;;;;;;;;;;;7.06;94.08;99707.69;5073060;28;19923;-88
2021/09/16 12:18:45;;;;;;;;;;;;;;;7.02;93.89;99706.06;5074285;28;20326;-85
2021/09/16 12:21:15;;;;;;;;;;;;;;;7.04;93.76;99698.13;5074538;28;19924;-85
2021/09/16 12:23:49;;;;;;;;;;;;;;;7.12;94.04;99704.03;5074240;28;20299;-85
2021/09/16 12:26:16;;;;;;;;;;;;;;;7.02;93.54;99694.66;5073206;28;20346;-85
2021/09/16 12:28:51;;;;;;;;;;;;;;;7.17;94.56;99704.75;5074202;28;19920;-85
2021/09/16 12:31:20;;;;;;;;;;;;;;;7.08;93.65;99692.72;5071156;28;19921;-84
2021/09/16 12:33:53;;;;;;;;;;;;;;;7.06;94.23;99691.03;5074209;28;19916;-86
2021/09/16 12:36:19;;;;;;;;;;;;;;;7.06;94.17;99691.03;5080127;28;19921;-84
2021/09/16 12:38:47;;;;;;;;;;;;;;;7.11;93.59;99693.53;5073710;28;19916;-85
2021/09/16 12:41:19;;;;;;;;;;;;;;;7.13;93.20;99689.06;5072513;28;19920;-85
2021/09/16 12:43:44;;;;;;;;;;;;;;;7.05;93.52;99695.44;5072543;28;19916;-85
2021/09/16 12:46:16;;;;;;;;;;;;;;;7.21;94.36;99695.84;5070993;28;19931;-85
2021/09/16 12:48:42;;;;;;;;;;;;;;;7.11;93.14;99696.16;5080273;28;19974;-85
2021/09/16 12:51:08;;;;;;;;;;;;;;;7.19;94.56;99695.00;5079204;28;19917;-86
2021/09/16 12:53:40;;;;;;;;;;;;;;;7.17;94.85;99693.34;5072137;28;19917;-85
2021/09/16 12:56:09;;;;;;;;;;;;;;;7.06;94.08;99691.88;5073487;28;19917;-86
2021/09/16 12:58:34;;;;;;;;;;;;;;;7.09;93.85;99691.78;5073574;28;19916;-84
2021/09/16 13:01:03;;;;;;;;;;;;;;;7.04;93.31;99687.59;5072317;28;19981;-85
2021/09/16 13:03:28;;;;;;;;;;;;;;;7.13;93.36;99691.72;5071708;28;19939;-88
2021/09/16 13:06:07;;;;;;;;;;;;;;;6.99;93.48;99685.09;5072048;28;20252;-85
2021/09/16 13:08:37;;;;;;;;;;;;;;;7.02;93.68;99684.13;5071438;28;20306;-87
2021/09/16 13:11:17;;;;;;;;;;;;;;;6.97;93.43;99689.50;5070876;28;20371;-87
2021/09/16 13:13:42;;;;;;;;;;;;;;;6.94;93.57;99681.72;5071839;28;19928;-85
2021/09/16 13:16:09;;;;;;;;;;;;;;;6.99;93.45;99673.66;5070551;28;19916;-85
2021/09/16 13:18:34;;;;;;;;;;;;;;;7.00;93.19;99672.78;5071659;28;19989;-85
2021/09/16 13:21:00;;;;;;;;;;;;;;;6.93;92.73;99672.09;5071871;28;20382;-87
2021/09/16 13:23:26;;;;;;;;;;;;;;;6.91;93.01;99669.50;5071553;28;20381;-85
2021/09/16 13:25:52;;;;;;;;;;;;;;;6.95;93.50;99672.91;5071704;28;19921;-86
2021/09/16 13:28:18;;;;;;;;;;;;;;;7.00;93.33;99671.00;5074793;28;19923;-86
2021/09/16 13:30:43;;;;;;;;;;;;;;;6.97;92.49;99676.34;5070256;28;19938;-85
2021/09/16 13:33:10;;;;;;;;;;;;;;;7.04;92.98;99671.78;5079715;28;20441;-85
2021/09/16 13:35:35;;;;;;;;;;;;;;;6.87;93.28;99674.91;5071249;28;19920;-88
2021/09/16 13:38:00;;;;;;;;;;;;;;;6.87;93.60;99669.63;5069624;28;19962;-85
2021/09/16 13:40:26;;;;;;;;;;;;;;;6.99;93.34;99679.81;5072498;28;20015;-85
2021/09/16 13:42:52;;;;;;;;;;;;;;;6.93;92.53;99672.09;5070787;28;20347;-85
2021/09/16 13:45:18;;;;;;;;;;;;;;;6.88;93.69;99674.00;5071322;28;19924;-86
2021/09/16 13:47:45;;;;;;;;;;;;;;;6.97;93.50;99671.06;5071096;28;20438;-86
2021/09/16 13:50:11;;;;;;;;;;;;;;;7.01;92.72;99672.72;5074077;28;19996;-86
2021/09/16 13:52:37;;;;;;;;;;;;;;;7.09;93.06;99678.63;5072417;28;20015;-85
2021/09/16 13:55:02;;;;;;;;;;;;;;;6.92;93.04;99665.09;5070359;28;20007;-85
2021/09/16 13:57:27;;;;;;;;;;;;;;;6.88;93.03;99674.00;5072428;28;20024;-85
2021/09/16 13:59:55;;;;;;;;;;;;;;;6.97;94.62;99676.34;5069198;28;21426;-85
2021/09/16 14:02:20;;;;;;;;;;;;;;;6.87;93.00;99674.91;5071152;28;19920;-85
2021/09/16 14:04:45;;;;;;;;;;;;;;;6.84;93.19;99677.63;5072233;28;19943;-85
2021/09/16 14:07:11;;;;;;;;;;;;;;;6.90;93.62;99680.94;5070948;28;19916;-85
2021/09/16 14:09:36;;;;;;;;;;;;;;;6.88;93.01;99680.13;5070784;28;19917;-85
2021/09/16 14:12:01;;;;;;;;;;;;;;;6.94;93.21;99670.31;5070966;28;19920;-86
2021/09/16 14:14:26;;;;;;;;;;;;;;;6.81;92.92;99670.69;5070924;28;19916;-85
2021/09/16 14:16:51;;;;;;;;;;;;;;;6.82;93.20;99666.28;5070620;28;19978;-84
2021/09/16 14:19:17;;;;;;;;;;;;;;;6.85;93.06;99668.84;5066281;28;19921;-85
2021/09/16 14:21:42;;;;;;;;;;;;;;;6.85;92.63;99663.56;5070591;28;19920;-85
2021/09/16 14:24:10;;;;;;;;;;;;;;;6.90;92.65;99666.91;5070624;28;20414;-86
2021/09/16 14:26:35;;;;;;;;;;;;;;;6.82;92.86;99666.28;5077609;28;19955;-87
2021/09/16 14:29:01;;;;;;;;;;;;;;;6.80;92.69;99670.75;5072023;28;19917;-86
2021/09/16 14:31:26;;;;;;;;;;;;;;;6.90;92.40;99661.66;5068697;28;20390;-85
2021/09/16 14:33:51;;;;;;;;;;;;;;;6.87;92.57;99667.00;5073528;28;19924;-85
2021/09/16 14:36:17;;;;;;;;;;;;;;;6.85;92.70;99660.94;5070695;28;19920;-85
2021/09/16 14:38:43;;;;;;;;;;;;;;;6.83;92.62;99653.06;5071669;28;19916;-86
2021/09/16 14:41:12;;;;;;;;;;;;;;;6.87;93.10;99659.97;5070788;28;20075;-85
2021/09/16 14:43:37;;;;;;;;;;;;;;;6.96;93.24;99652.72;5077515;28;19943;-85
2021/09/16 14:46:03;;;;;;;;;;;;;;;6.84;93.74;99657.41;5077563;28;20371;-86
2021/09/16 14:48:28;;;;;;;;;;;;;;;6.82;93.60;99651.34;5070508;28;19978;-85
2021/09/16 14:50:53;;;;;;;;;;;;;;;6.97;93.58;99646.50;5070385;28;19920;-85
2021/09/16 14:53:19;;;;;;;;;;;;;;;6.89;93.04;99649.38;5070454;28;19967;-85
2021/09/16 14:55:44;;;;;;;;;;;;;;;6.99;93.09;99657.84;5069454;28;19962;-85
2021/09/16 14:58:09;;;;;;;;;;;;;;;6.90;93.55;99654.59;5070487;28;19924;-84
2021/09/16 15:00:36;;;;;;;;;;;;;;;6.92;93.60;99651.91;5069110;28;19922;-85
2021/09/16 15:03:01;;;;;;;;;;;;;;;6.96;92.87;99650.09;5069773;28;20019;-85
2021/09/16 15:05:28;;;;;;;;;;;;;;;6.96;94.68;99661.47;5070256;28;20011;-86
2021/09/16 15:07:54;;;;;;;;;;;;;;;6.99;94.31;99658.75;5070044;28;20359;-85
2021/09/16 15:10:19;;;;;;;;;;;;;;;6.97;93.42;99650.00;5071758;28;20011;-85
2021/09/16 15:12:44;;;;;;;;;;;;;;;6.85;93.69;99658.28;5071224;28;20275;-87
2021/09/16 15:15:10;;;;;;;;;;;;;;;6.89;93.32;99652.91;5069080;28;19928;-88
2021/09/16 15:17:35;;;;;;;;;;;;;;;6.89;93.08;99652.91;5070205;28;19923;-87
2021/09/16 15:20:00;;;;;;;;;;;;;;;6.87;93.01;99657.31;5070266;28;19920;-85
2021/09/16 15:22:26;;;;;;;;;;;;;;;6.95;92.66;99659.72;5071487;28;20007;-85
2021/09/16 15:24:51;;;;;;;;;;;;;;;6.86;92.81;99663.53;5071533;28;20371;-84
2021/09/16 15:27:17;;;;;;;;;;;;;;;6.93;92.89;99658.06;5070337;28;19923;-85
2021/09/16 15:29:42;;;;;;;;;;;;;;;7.02;94.34;99663.94;5066970;28;20057;-86
2021/09/16 15:32:08;;;;;;;;;;;;;;;6.88;92.58;99660.84;5069133;28;19928;-85
2021/09/16 15:34:33;;;;;;;;;;;;;;;6.92;92.54;99665.09;5072590;28;19920;-85
2021/09/16 15:36:58;;;;;;;;;;;;;;;6.86;93.20;99665.25;5069913;28;19921;-84
2021/09/16 15:39:24;;;;;;;;;;;;;;;6.90;93.11;99657.22;5074119;28;19924;-90
2021/09/16 15:41:49;;;;;;;;;;;;;;;6.98;94.10;99656.16;5074831;28;19916;-92
2021/09/16 15:44:14;;;;;;;;;;;;;;;7.00;92.53;99659.59;5074279;28;19921;-90
2021/09/16 15:46:40;;;;;;;;;;;;;;;6.92;92.56;99654.56;5072045;28;19994;-91
2021/09/16 15:49:06;;;;;;;;;;;;;;;6.89;92.76;99657.28;5074344;28;19963;-90
2021/09/16 15:51:31;;;;;;;;;;;;;;;6.95;92.89;99658.88;5072704;28;19920;-89
2021/09/16 15:53:56;;;;;;;;;;;;;;;6.99;92.37;99648.22;5075203;28;19916;-89
2021/09/16 15:56:21;;;;;;;;;;;;;;;6.95;92.15;99653.63;5064858;28;19920;-89
2021/09/16 15:58:47;;;;;;;;;;;;;;;6.85;92.59;99655.66;5072269;28;19920;-89
2021/09/16 16:01:12;;;;;;;;;;;;;;;6.86;92.63;99660.00;5068274;28;19927;-91
2021/09/16 16:03:38;;;;;;;;;;;;;;;6.92;93.24;99662.47;5074799;28;19960;-90
2021/09/16 16:06:03;;;;;;;;;;;;;;;6.87;92.21;99661.75;5071178;28;19978;-89
2021/09/16 16:08:29;;;;;;;;;;;;;;;6.87;92.42;99667.00;5075447;28;19917;-90
2021/09/16 16:10:54;;;;;;;;;;;;;;;6.98;92.86;99664.91;5073726;28;19920;-89
2021/09/16 16:13:19;;;;;;;;;;;;;;;6.93;92.63;99664.19;5074046;28;19917;-90
2021/09/16 16:15:47;;;;;;;;;;;;;;;6.84;92.57;99675.00;5066877;28;19990;-90
2021/09/16 16:18:12;;;;;;;;;;;;;;;6.87;92.23;99675.75;5080942;28;19917;-89
2021/09/16 16:20:37;;;;;;;;;;;;;;;6.82;92.53;99671.56;5072379;28;19985;-89
2021/09/16 16:23:03;;;;;;;;;;;;;;;6.82;92.20;99671.56;5087366;28;19916;-89
2021/09/16 16:25:28;;;;;;;;;;;;;;;6.85;92.32;99672.31;5073614;28;19916;-90
2021/09/16 16:27:53;;;;;;;;;;;;;;;6.76;92.63;99672.59;5073515;28;20382;-90
2021/09/16 16:30:19;;;;;;;;;;;;;;;6.81;92.34;99680.34;5072436;28;19916;-89
2021/09/16 16:32:44;;;;;;;;;;;;;;;6.80;92.42;99679.50;5070323;28;19947;-90
2021/09/16 16:35:11;;;;;;;;;;;;;;;6.82;92.13;99682.94;5069264;28;19985;-89
2021/09/16 16:37:36;;;;;;;;;;;;;;;6.85;92.19;99672.31;5079502;28;19920;-89
2021/09/16 16:40:02;;;;;;;;;;;;;;;6.86;92.48;99676.69;5069021;28;19917;-89
2021/09/16 16:42:27;;;;;;;;;;;;;;;6.82;92.65;99676.81;5072787;28;19959;-89
2021/09/16 16:44:53;;;;;;;;;;;;;;;6.81;92.68;99669.81;5067426;28;20291;-89
2021/09/16 16:47:18;;;;;;;;;;;;;;;6.82;92.47;99669.78;5070477;28;20295;-89
2021/09/16 16:49:43;;;;;;;;;;;;;;;6.78;92.26;99667.28;5071490;28;19933;-91
2021/09/16 16:52:09;;;;;;;;;;;;;;;6.74;92.76;99663.88;5071388;28;19916;-89
2021/09/16 16:54:34;;;;;;;;;;;;;;;6.78;92.32;99669.91;5067582;28;19916;-88
2021/09/16 16:56:59;;;;;;;;;;;;;;;6.72;92.63;99666.56;5070563;28;19924;-89
2021/09/16 16:59:26;;;;;;;;;;;;;;;6.72;93.04;99671.81;5072571;28;19959;-90
2021/09/16 17:01:51;;;;;;;;;;;;;;;6.73;93.10;99676.19;5068713;28;20391;-89
2021/09/16 17:04:17;;;;;;;;;;;;;;;6.85;92.41;99668.84;5072254;28;19920;-89
2021/09/16 17:06:42;;;;;;;;;;;;;;;6.85;92.33;99676.72;5072513;28;19924;-87
2021/09/16 17:09:08;;;;;;;;;;;;;;;6.77;92.29;99679.59;5068691;28;20406;-89
2021/09/16 17:11:33;;;;;;;;;;;;;;;6.81;92.45;99681.22;5072034;28;19920;-90
2021/09/16 17:13:59;;;;;;;;;;;;;;;6.81;92.48;99680.34;5073786;28;19928;-90
2021/09/16 17:16:24;;;;;;;;;;;;;;;6.78;92.21;99680.44;5069709;28;19920;-89
2021/09/16 17:18:49;;;;;;;;;;;;;;;6.84;92.17;99685.53;5072036;28;20267;-88
2021/09/16 17:21:15;;;;;;;;;;;;;;;6.85;92.13;99682.84;5071444;28;19920;-87
2021/09/16 17:23:42;;;;;;;;;;;;;;;6.76;92.38;99680.47;5070339;28;19932;-89
2021/09/16 17:26:08;;;;;;;;;;;;;;;6.82;92.44;99687.34;5069822;28;19942;-89
2021/09/16 17:28:34;;;;;;;;;;;;;;;6.71;92.51;99683.25;5071830;28;20027;-87
2021/09/16 17:31:00;;;;;;;;;;;;;;;6.72;92.30;99682.34;5067416;28;19931;-90
2021/09/16 17:33:25;;;;;;;;;;;;;;;6.82;92.24;99682.09;5070886;28;20303;-89
2021/09/16 17:35:50;;;;;;;;;;;;;;;6.72;92.01;99684.97;5069993;28;19924;-88
2021/09/16 17:38:15;;;;;;;;;;;;;;;6.66;92.56;99687.78;5071339;28;19916;-89
2021/09/16 17:40:42;;;;;;;;;;;;;;;6.70;92.39;99692.06;5071446;28;19924;-89
2021/09/16 17:43:07;;;;;;;;;;;;;;;6.63;93.22;99690.50;5071347;28;19970;-89
2021/09/16 17:45:32;;;;;;;;;;;;;;;6.59;93.57;99688.88;5068882;28;19920;-89
2021/09/16 17:47:57;;;;;;;;;;;;;;;6.63;93.25;99693.13;5069895;28;19920;-90
2021/09/16 17:50:23;;;;;;;;;;;;;;;6.68;92.77;99693.00;5067059;28;19928;-90
2021/09/16 17:52:48;;;;;;;;;;;;;;;6.62;92.99;99695.81;5071597;28;19979;-90
2021/09/16 17:55:15;;;;;;;;;;;;;;;6.59;93.57;99696.78;5072118;28;19917;-88
2021/09/16 17:57:43;;;;;;;;;;;;;;;6.62;93.87;99695.81;5069922;28;19920;-88
2021/09/16 18:00:09;;;;;;;;;;;;;;;6.63;93.95;99690.50;5069485;28;19928;-90
2021/09/16 18:02:34;;;;;;;;;;;;;;;6.73;93.84;99696.38;5066907;28;19921;-89
2021/09/16 18:05:00;;;;;;;;;;;;;;;6.62;94.33;99707.22;5070199;28;19940;-89
2021/09/16 18:07:27;;;;;;;;;;;;;;;6.71;93.25;99700.81;5070496;28;20295;-90
2021/09/16 18:09:52;;;;;;;;;;;;;;;6.77;92.91;99707.69;5068194;28;20018;-91
2021/09/16 18:12:18;;;;;;;;;;;;;;;6.68;93.12;99712.28;5070188;28;20382;-89
2021/09/16 18:14:43;;;;;;;;;;;;;;;6.69;93.26;99713.19;5069118;28;20497;-86
2021/09/16 18:17:08;;;;;;;;;;;;;;;6.73;92.59;99713.06;5070827;28;20368;-89
2021/09/16 18:19:34;;;;;;;;;;;;;;;6.61;93.28;99716.03;5068959;28;20054;-90
2021/09/16 18:21:59;;;;;;;;;;;;;;;6.67;93.15;99723.75;5070797;28;19920;-91
2021/09/16 18:24:24;;;;;;;;;;;;;;;6.68;92.99;99722.81;5068689;28;19967;-89
2021/09/16 18:26:49;;;;;;;;;;;;;;;6.65;93.29;99722.94;5069153;28;19948;-89
2021/09/16 18:29:15;;;;;;;;;;;;;;;6.67;93.04;99730.78;5069855;28;19920;-89
2021/09/16 18:31:40;;;;;;;;;;;;;;;6.68;92.87;99733.34;5065871;28;19973;-90
2021/09/16 18:34:05;;;;;;;;;;;;;;;6.65;92.94;99738.75;5068565;28;19920;-92
2021/09/16 18:36:31;;;;;;;;;;;;;;;6.64;93.34;99741.41;5068884;28;20027;-90
2021/09/16 18:38:56;;;;;;;;;;;;;;;6.64;93.00;99742.25;5067093;28;19927;-88
2021/09/16 18:41:21;;;;;;;;;;;;;;;6.60;93.36;99735.34;5070639;28;19916;-89
2021/09/16 18:43:47;;;;;;;;;;;;;;;6.60;93.80;99739.75;5070840;28;19956;-90
2021/09/16 18:46:12;;;;;;;;;;;;;;;6.57;94.42;99743.31;5067943;28;19927;-89
2021/09/16 18:48:37;;;;;;;;;;;;;;;6.65;93.61;99749.28;5069698;28;19916;-90
2021/09/16 18:51:03;;;;;;;;;;;;;;;6.56;93.87;99741.63;5071589;28;19916;-89
2021/09/16 18:53:28;;;;;;;;;;;;;;;6.58;93.82;99746.84;5070038;28;19930;-89